Aérodrome :
LOGIN :

S'inscrire | Disclaimer

   EN    FR    IT 

 










Légende :    VFR   VFR Marginal   IFR   IFR Intensif   IFR Très Intensif
Visi : 
Plafond : 
>= 8 km
>= 3000ft
5 à 8 km
1000 à 3000 ft
1500m à 5 km
500 à 1000 ft
800 à 1500m
200 à 500 ft
< 800m
< 200 ft
Symboles :   Orages  Brouillard  Fortes neiges  Fortes précipitations  Vent > 20 kt
SIGMETs :   Divers  Orages  Givrage  Turbulence  Onde Orograph.  Cendres Volcan.






- Altitude de l'aérodrome : 485 ft
- Code IATA : QSA


LELL - Sabadell

DERNIER METAR :
  • 211600Z 10010KT 070V140 9999 FEW055 SCT070TCU 20/12 Q1012

METARs EXPIRÉS :
  • 211530Z 05009KT 360V100 9999 FEW055 SCT070TCU 20/11 Q1012
  • 211500Z 13011KT 090V160 9999 FEW050 SCT070TCU 22/10 Q1012
  • 211430Z 16011KT 120V200 9999 FEW050 SCT070TCU 22/11 Q1011
  • 211400Z 16011KT 130V200 9999 FEW050 FEW070TCU 23/09 Q1011
  • 211330Z 10012KT 070V140 9999 FEW050 SCT070TCU 22/10 Q1012
  • 211300Z 12011KT 080V160 9999 FEW050 SCT070TCU 22/13 Q1012
  • 211230Z 13010KT 100V190 9999 FEW050 SCT070TCU 21/11 Q1012
  • 211200Z 29006KT 9999 FEW050 FEW070TCU 23/07 Q1012
  • 211130Z 27009KT 220V310 9999 FEW060 23/07 Q1013

TAF TAF LELL
Valide du 21 à 15h jusqu'au 22 à 15h UTC


211400Z 2115/2215 14008KT 9999 FEW030 TX22/2213Z TN12/2205Z
PROB30
TEMPO 2115/2212 VRB15G25KT 4000 SHRA FEW045TCU BKN050
BECMG 2118/2121 VRB03KT
BECMG 2206/2209 16010KT



MET'MAP, la Météo Aéronautique d'un coup d'oeil ! - Copyright ORBIFLY Décembre 2007 - Disclaimer

ORBIFLY MET'MAP TEAM :

Programmation & Développement : Alexandra Zaïnal
Sur une idée originale de : Baudouin d'Aumeries
Soutien technique & logistique : Manuel Goepfert
Assistance : Marc-Olivier Méhu




SOURCES & CREDITS :

   NOAA